sensor_id;sensor_type;location;lat;lon;timestamp;pressure;altitude;pressure_sealevel;temperature;humidity
6136;BME280;24008;42.664;23.372;2023-02-12T00:00:21;95702.00;;;0.23;45.65
6136;BME280;24008;42.664;23.372;2023-02-12T00:02:48;95587.72;;;-0.37;46.42
6136;BME280;24008;42.664;23.372;2023-02-12T00:05:15;95703.34;;;0.32;46.88
6136;BME280;24008;42.664;23.372;2023-02-12T00:07:43;95700.72;;;0.35;47.54
6136;BME280;24008;42.664;23.372;2023-02-12T00:10:10;95691.34;;;0.39;47.59
6136;BME280;24008;42.664;23.372;2023-02-12T00:12:38;95521.72;;;-0.63;46.67
6136;BME280;24008;42.664;23.372;2023-02-12T00:15:05;95694.50;;;0.45;47.22
6136;BME280;24008;42.664;23.372;2023-02-12T00:17:32;95642.16;;;0.10;46.88
6136;BME280;24008;42.664;23.372;2023-02-12T00:19:59;95701.09;;;0.48;47.12
6136;BME280;24008;42.664;23.372;2023-02-12T00:22:26;95703.72;;;0.45;47.08
6136;BME280;24008;42.664;23.372;2023-02-12T00:24:55;95704.69;;;0.41;47.55
6136;BME280;24008;42.664;23.372;2023-02-12T00:27:25;95734.97;;;0.38;47.03
6136;BME280;24008;42.664;23.372;2023-02-12T00:29:52;95582.63;;;-0.35;47.09
6136;BME280;24008;42.664;23.372;2023-02-12T00:32:18;95423.34;;;-1.45;47.17
6136;BME280;24008;42.664;23.372;2023-02-12T00:34:47;95696.00;;;0.26;47.38
6136;BME280;24008;42.664;23.372;2023-02-12T00:37:14;95696.16;;;0.23;47.90
6136;BME280;24008;42.664;23.372;2023-02-12T00:39:44;95688.75;;;0.18;48.13
6136;BME280;24008;42.664;23.372;2023-02-12T00:42:13;95587.91;;;-0.43;48.10
6136;BME280;24008;42.664;23.372;2023-02-12T00:44:39;95679.53;;;0.19;47.76
6136;BME280;24008;42.664;23.372;2023-02-12T00:47:06;95682.81;;;0.21;46.90
6136;BME280;24008;42.664;23.372;2023-02-12T00:49:33;95676.13;;;0.20;47.32
6136;BME280;24008;42.664;23.372;2023-02-12T00:52:00;95680.41;;;0.18;48.10
6136;BME280;24008;42.664;23.372;2023-02-12T00:54:27;95673.88;;;0.12;47.82
6136;BME280;24008;42.664;23.372;2023-02-12T00:56:54;95668.13;;;0.10;47.63
6136;BME280;24008;42.664;23.372;2023-02-12T00:59:23;95666.53;;;0.08;48.34
6136;BME280;24008;42.664;23.372;2023-02-12T01:01:50;95633.63;;;-0.10;48.12
6136;BME280;24008;42.664;23.372;2023-02-12T01:04:18;95654.94;;;0.04;48.08
6136;BME280;24008;42.664;23.372;2023-02-12T01:06:44;95627.91;;;-0.13;48.13
6136;BME280;24008;42.664;23.372;2023-02-12T01:09:12;95654.78;;;0.08;48.24
6136;BME280;24008;42.664;23.372;2023-02-12T01:11:39;95622.81;;;-0.12;48.09
6136;BME280;24008;42.664;23.372;2023-02-12T01:14:06;95623.81;;;-0.16;47.76
6136;BME280;24008;42.664;23.372;2023-02-12T01:16:35;95661.25;;;0.14;48.30
6136;BME280;24008;42.664;23.372;2023-02-12T01:19:03;95663.72;;;0.15;48.34
6136;BME280;24008;42.664;23.372;2023-02-12T01:21:32;95661.94;;;0.19;48.68
6136;BME280;24008;42.664;23.372;2023-02-12T01:24:00;95667.63;;;0.24;48.90
6136;BME280;24008;42.664;23.372;2023-02-12T01:26:29;95670.78;;;0.29;47.85
6136;BME280;24008;42.664;23.372;2023-02-12T01:28:57;95680.72;;;0.32;48.39
6136;BME280;24008;42.664;23.372;2023-02-12T01:31:27;95636.06;;;0.15;48.25
6136;BME280;24008;42.664;23.372;2023-02-12T01:33:57;95677.91;;;0.40;47.91
6136;BME280;24008;42.664;23.372;2023-02-12T01:36:25;95649.88;;;0.27;48.28
6136;BME280;24008;42.664;23.372;2023-02-12T01:38:52;95666.16;;;0.40;47.88
6136;BME280;24008;42.664;23.372;2023-02-12T01:41:20;95624.16;;;0.20;48.24
6136;BME280;24008;42.664;23.372;2023-02-12T01:44:07;95620.94;;;0.17;48.59
6136;BME280;24008;42.664;23.372;2023-02-12T01:46:34;95614.38;;;0.13;48.51
6136;BME280;24008;42.664;23.372;2023-02-12T01:49:04;95626.63;;;0.22;48.91
6136;BME280;24008;42.664;23.372;2023-02-12T01:51:32;95649.56;;;0.36;48.97
6136;BME280;24008;42.664;23.372;2023-02-12T01:54:01;95582.34;;;-0.04;48.69
6136;BME280;24008;42.664;23.372;2023-02-12T01:56:31;95603.34;;;0.17;48.98
6136;BME280;24008;42.664;23.372;2023-02-12T01:58:58;95634.41;;;0.38;48.94
6136;BME280;24008;42.664;23.372;2023-02-12T02:01:28;95600.06;;;0.15;48.76
6136;BME280;24008;42.664;23.372;2023-02-12T02:03:59;95544.44;;;-0.21;49.13
6136;BME280;24008;42.664;23.372;2023-02-12T02:06:31;95643.63;;;0.37;48.97
6136;BME280;24008;42.664;23.372;2023-02-12T02:09:00;95597.59;;;0.13;48.79
6136;BME280;24008;42.664;23.372;2023-02-12T02:11:27;95644.66;;;0.33;48.89
6136;BME280;24008;42.664;23.372;2023-02-12T02:14:12;95647.25;;;0.30;49.12
6136;BME280;24008;42.664;23.372;2023-02-12T02:17:08;95649.31;;;0.20;49.42
6136;BME280;24008;42.664;23.372;2023-02-12T02:20:01;95644.66;;;0.10;50.32
6136;BME280;24008;42.664;23.372;2023-02-12T02:22:36;95605.88;;;-0.30;50.08
6136;BME280;24008;42.664;23.372;2023-02-12T02:25:42;95607.97;;;-0.41;50.66
6136;BME280;24008;42.664;23.372;2023-02-12T02:28:32;95645.84;;;-0.24;50.94
6136;BME280;24008;42.664;23.372;2023-02-12T02:31:04;95636.91;;;-0.31;51.13
6136;BME280;24008;42.664;23.372;2023-02-12T02:33:37;95635.38;;;-0.35;51.57
6136;BME280;24008;42.664;23.372;2023-02-12T02:36:17;95632.84;;;-0.35;51.98
6136;BME280;24008;42.664;23.372;2023-02-12T02:38:50;95609.94;;;-0.49;51.76
6136;BME280;24008;42.664;23.372;2023-02-12T02:41:27;95626.19;;;-0.36;51.89
6136;BME280;24008;42.664;23.372;2023-02-12T02:43:56;95533.03;;;-1.00;52.09
6136;BME280;24008;42.664;23.372;2023-02-12T02:46:29;95590.38;;;-0.64;52.24
6136;BME280;24008;42.664;23.372;2023-02-12T02:48:59;95635.44;;;-0.37;53.09
6136;BME280;24008;42.664;23.372;2023-02-12T02:51:31;95647.91;;;-0.35;53.23
6136;BME280;24008;42.664;23.372;2023-02-12T02:54:03;95645.34;;;-0.33;53.07
6136;BME280;24008;42.664;23.372;2023-02-12T02:56:34;95653.63;;;-0.30;53.40
6136;BME280;24008;42.664;23.372;2023-02-12T02:59:04;95652.66;;;-0.26;52.94
6136;BME280;24008;42.664;23.372;2023-02-12T03:01:38;95652.31;;;-0.17;52.86
6136;BME280;24008;42.664;23.372;2023-02-12T03:04:11;95441.25;;;-1.55;51.85
6136;BME280;24008;42.664;23.372;2023-02-12T03:06:42;95648.59;;;-0.07;52.34
6136;BME280;24008;42.664;23.372;2023-02-12T03:09:15;95645.28;;;-0.07;53.05
6136;BME280;24008;42.664;23.372;2023-02-12T03:11:43;95641.13;;;-0.08;52.73
6136;BME280;24008;42.664;23.372;2023-02-12T03:14:12;95646.84;;;-0.05;52.59
6136;BME280;24008;42.664;23.372;2023-02-12T03:16:50;95625.56;;;-0.18;51.96
6136;BME280;24008;42.664;23.372;2023-02-12T03:19:22;95642.56;;;-0.01;52.50
6136;BME280;24008;42.664;23.372;2023-02-12T03:21:54;95642.47;;;0.00;52.61
6136;BME280;24008;42.664;23.372;2023-02-12T03:24:26;95642.56;;;-0.01;52.16
6136;BME280;24008;42.664;23.372;2023-02-12T03:26:58;95637.53;;;-0.01;52.37
6136;BME280;24008;42.664;23.372;2023-02-12T03:29:28;95617.34;;;-0.23;52.19
6136;BME280;24008;42.664;23.372;2023-02-12T03:32:05;95638.88;;;-0.16;52.91
6136;BME280;24008;42.664;23.372;2023-02-12T03:34:45;95614.69;;;-0.42;53.16
6136;BME280;24008;42.664;23.372;2023-02-12T03:37:17;95561.75;;;-0.60;53.76
6136;BME280;24008;42.664;23.372;2023-02-12T03:39:50;95625.41;;;-0.13;53.32
6136;BME280;24008;42.664;23.372;2023-02-12T03:42:26;95595.75;;;-0.27;53.79
6136;BME280;24008;42.664;23.372;2023-02-12T03:45:01;95626.75;;;-0.05;53.52
6136;BME280;24008;42.664;23.372;2023-02-12T03:47:38;95554.59;;;-0.48;53.66
6136;BME280;24008;42.664;23.372;2023-02-12T03:50:11;95552.63;;;-0.38;53.76
6136;BME280;24008;42.664;23.372;2023-02-12T03:52:40;95608.50;;;-0.10;53.78
6136;BME280;24008;42.664;23.372;2023-02-12T03:55:08;95580.72;;;-0.28;53.48
6136;BME280;24008;42.664;23.372;2023-02-12T03:57:38;95554.25;;;-0.37;53.63
6136;BME280;24008;42.664;23.372;2023-02-12T04:00:09;95626.06;;;0.14;53.86
6136;BME280;24008;42.664;23.372;2023-02-12T04:02:38;95626.94;;;0.13;53.58
6136;BME280;24008;42.664;23.372;2023-02-12T04:05:06;95598.25;;;-0.04;53.50
6136;BME280;24008;42.664;23.372;2023-02-12T04:07:34;95621.88;;;0.14;53.74
6136;BME280;24008;42.664;23.372;2023-02-12T04:10:03;95629.34;;;0.16;53.90
6136;BME280;24008;42.664;23.372;2023-02-12T04:12:33;95598.13;;;-0.01;53.38
6136;BME280;24008;42.664;23.372;2023-02-12T04:15:28;95558.94;;;-0.28;53.41
6136;BME280;24008;42.664;23.372;2023-02-12T04:18:06;95635.91;;;0.20;53.71
6136;BME280;24008;42.664;23.372;2023-02-12T04:20:41;95553.31;;;-0.34;54.29
6136;BME280;24008;42.664;23.372;2023-02-12T04:23:17;95609.00;;;0.00;53.62
6136;BME280;24008;42.664;23.372;2023-02-12T04:25:52;95651.22;;;0.14;53.84
6136;BME280;24008;42.664;23.372;2023-02-12T04:28:27;95647.13;;;0.11;54.09
6136;BME280;24008;42.664;23.372;2023-02-12T04:31:01;95619.94;;;-0.01;53.53
6136;BME280;24008;42.664;23.372;2023-02-12T04:33:35;95618.34;;;-0.04;53.86
6136;BME280;24008;42.664;23.372;2023-02-12T04:36:08;95651.94;;;0.17;54.23
6136;BME280;24008;42.664;23.372;2023-02-12T04:38:39;95587.81;;;-0.16;53.93
6136;BME280;24008;42.664;23.372;2023-02-12T04:41:07;95653.31;;;0.24;54.17
6136;BME280;24008;42.664;23.372;2023-02-12T04:43:36;95605.84;;;-0.05;54.49
6136;BME280;24008;42.664;23.372;2023-02-12T04:46:03;95654.09;;;0.26;54.24
6136;BME280;24008;42.664;23.372;2023-02-12T04:48:30;95650.66;;;0.29;54.19
6136;BME280;24008;42.664;23.372;2023-02-12T04:51:00;95654.69;;;0.33;54.21
6136;BME280;24008;42.664;23.372;2023-02-12T04:53:28;95618.66;;;0.11;54.03
6136;BME280;24008;42.664;23.372;2023-02-12T04:55:54;95654.66;;;0.34;53.67
6136;BME280;24008;42.664;23.372;2023-02-12T04:58:21;95658.81;;;0.35;53.83
6136;BME280;24008;42.664;23.372;2023-02-12T05:00:48;95612.25;;;0.02;54.73
6136;BME280;24008;42.664;23.372;2023-02-12T05:03:14;95617.66;;;0.15;55.14
6136;BME280;24008;42.664;23.372;2023-02-12T05:05:41;95621.75;;;0.17;54.35
6136;BME280;24008;42.664;23.372;2023-02-12T05:08:09;95650.31;;;0.38;54.54
6136;BME280;24008;42.664;23.372;2023-02-12T05:10:36;95590.69;;;-0.04;54.43
6136;BME280;24008;42.664;23.372;2023-02-12T05:13:03;95650.44;;;0.35;54.61
6136;BME280;24008;42.664;23.372;2023-02-12T05:15:29;95658.09;;;0.32;54.19
6136;BME280;24008;42.664;23.372;2023-02-12T05:17:56;95660.59;;;0.32;54.61
6136;BME280;24008;42.664;23.372;2023-02-12T05:20:23;95602.59;;;-0.09;54.86
6136;BME280;24008;42.664;23.372;2023-02-12T05:22:51;95672.19;;;0.36;54.25
6136;BME280;24008;42.664;23.372;2023-02-12T05:25:20;95676.47;;;0.34;54.78
6136;BME280;24008;42.664;23.372;2023-02-12T05:27:47;95686.38;;;0.37;54.87
6136;BME280;24008;42.664;23.372;2023-02-12T05:30:13;95618.06;;;0.04;55.09
6136;BME280;24008;42.664;23.372;2023-02-12T05:32:40;95685.28;;;0.44;55.53
6136;BME280;24008;42.664;23.372;2023-02-12T05:35:07;95615.50;;;0.06;54.85
6136;BME280;24008;42.664;23.372;2023-02-12T05:37:34;95661.47;;;0.31;55.03
6136;BME280;24008;42.664;23.372;2023-02-12T05:40:02;95556.47;;;-0.29;54.93
6136;BME280;24008;42.664;23.372;2023-02-12T05:42:30;95702.22;;;0.62;54.60
6136;BME280;24008;42.664;23.372;2023-02-12T05:44:57;95700.34;;;0.67;54.72
6136;BME280;24008;42.664;23.372;2023-02-12T05:47:23;95708.53;;;0.72;54.54
6136;BME280;24008;42.664;23.372;2023-02-12T05:49:50;95711.81;;;0.75;54.74
6136;BME280;24008;42.664;23.372;2023-02-12T05:52:17;95706.72;;;0.76;55.44
6136;BME280;24008;42.664;23.372;2023-02-12T05:54:44;95709.19;;;0.78;55.73
6136;BME280;24008;42.664;23.372;2023-02-12T05:57:14;95712.56;;;0.77;56.09
6136;BME280;24008;42.664;23.372;2023-02-12T05:59:42;95706.72;;;0.76;56.85
6136;BME280;24008;42.664;23.372;2023-02-12T06:02:08;95714.47;;;0.71;57.87
6136;BME280;24008;42.664;23.372;2023-02-12T06:04:39;95531.69;;;-0.39;58.41
6136;BME280;24008;42.664;23.372;2023-02-12T06:07:06;95661.38;;;0.34;59.51
6136;BME280;24008;42.664;23.372;2023-02-12T06:09:33;95632.38;;;0.02;59.82
6136;BME280;24008;42.664;23.372;2023-02-12T06:12:00;95648.66;;;0.15;59.91
6136;BME280;24008;42.664;23.372;2023-02-12T06:14:27;95714.03;;;0.60;60.48
6136;BME280;24008;42.664;23.372;2023-02-12T06:16:56;95719.06;;;0.60;60.47
6136;BME280;24008;42.664;23.372;2023-02-12T06:19:23;95633.09;;;0.06;60.78
6136;BME280;24008;42.664;23.372;2023-02-12T06:21:49;95731.56;;;0.62;61.23
6136;BME280;24008;42.664;23.372;2023-02-12T06:24:16;95717.31;;;0.62;61.94
6136;BME280;24008;42.664;23.372;2023-02-12T06:26:43;95724.97;;;0.59;62.48
6136;BME280;24008;42.664;23.372;2023-02-12T06:29:10;95596.28;;;-0.19;63.33
6136;BME280;24008;42.664;23.372;2023-02-12T06:31:38;95643.03;;;0.09;64.18
6136;BME280;24008;42.664;23.372;2023-02-12T06:34:08;95576.72;;;-0.34;64.58
6136;BME280;24008;42.664;23.372;2023-02-12T06:36:36;95732.34;;;0.64;65.61
6136;BME280;24008;42.664;23.372;2023-02-12T06:39:04;95625.16;;;-0.07;65.78
6136;BME280;24008;42.664;23.372;2023-02-12T06:41:31;95736.50;;;0.65;66.51
6136;BME280;24008;42.664;23.372;2023-02-12T06:43:58;95741.47;;;0.66;66.74
6136;BME280;24008;42.664;23.372;2023-02-12T06:46:25;95734.75;;;0.67;67.34
6136;BME280;24008;42.664;23.372;2023-02-12T06:48:53;95629.81;;;0.04;67.93
6136;BME280;24008;42.664;23.372;2023-02-12T06:51:21;95652.97;;;0.12;68.22
6136;BME280;24008;42.664;23.372;2023-02-12T06:53:50;95573.78;;;-0.22;68.68
6136;BME280;24008;42.664;23.372;2023-02-12T06:56:18;95690.44;;;0.41;69.65
6136;BME280;24008;42.664;23.372;2023-02-12T06:58:50;95728.13;;;0.64;69.83
6136;BME280;24008;42.664;23.372;2023-02-12T07:01:19;95736.69;;;0.60;70.15
6136;BME280;24008;42.664;23.372;2023-02-12T07:03:48;95735.88;;;0.60;70.76
6136;BME280;24008;42.664;23.372;2023-02-12T07:06:15;95753.47;;;0.60;70.79
6136;BME280;24008;42.664;23.372;2023-02-12T07:08:44;95740.19;;;0.56;71.50
6136;BME280;24008;42.664;23.372;2023-02-12T07:11:11;95628.59;;;-0.10;71.80
6136;BME280;24008;42.664;23.372;2023-02-12T07:13:39;95651.78;;;-0.02;72.15
6136;BME280;24008;42.664;23.372;2023-02-12T07:16:07;95583.88;;;-0.47;71.69
6136;BME280;24008;42.664;23.372;2023-02-12T07:18:35;95716.91;;;0.28;72.64
6136;BME280;24008;42.664;23.372;2023-02-12T07:21:02;95744.53;;;0.51;72.08
6136;BME280;24008;42.664;23.372;2023-02-12T07:23:30;95469.19;;;-1.16;72.17
6136;BME280;24008;42.664;23.372;2023-02-12T07:26:00;95582.75;;;-0.38;71.81
6136;BME280;24008;42.664;23.372;2023-02-12T07:28:27;95730.22;;;0.53;72.03
6136;BME280;24008;42.664;23.372;2023-02-12T07:30:58;95733.63;;;0.52;72.45
6136;BME280;24008;42.664;23.372;2023-02-12T07:33:24;95688.47;;;0.26;72.36
6136;BME280;24008;42.664;23.372;2023-02-12T07:35:51;95496.09;;;-0.96;72.24
6136;BME280;24008;42.664;23.372;2023-02-12T07:38:18;95707.41;;;0.36;72.93
6136;BME280;24008;42.664;23.372;2023-02-12T07:40:45;95716.63;;;0.35;72.61
6136;BME280;24008;42.664;23.372;2023-02-12T07:43:13;95760.06;;;0.62;72.42
6136;BME280;24008;42.664;23.372;2023-02-12T07:45:39;95754.22;;;0.62;72.75
6136;BME280;24008;42.664;23.372;2023-02-12T07:48:06;95720.66;;;0.40;72.51
6136;BME280;24008;42.664;23.372;2023-02-12T07:50:33;95717.50;;;0.34;72.42
6136;BME280;24008;42.664;23.372;2023-02-12T07:53:00;95757.50;;;0.64;72.87
6136;BME280;24008;42.664;23.372;2023-02-12T07:55:27;95708.56;;;0.49;72.57
6136;BME280;24008;42.664;23.372;2023-02-12T07:57:53;95753.59;;;0.79;72.15
6136;BME280;24008;42.664;23.372;2023-02-12T08:00:22;95760.34;;;0.78;72.50
6136;BME280;24008;42.664;23.372;2023-02-12T08:02:52;95433.09;;;-1.12;73.38
6136;BME280;24008;42.664;23.372;2023-02-12T08:05:19;95702.81;;;0.47;73.29
6136;BME280;24008;42.664;23.372;2023-02-12T08:07:45;95684.09;;;0.31;72.86
6136;BME280;24008;42.664;23.372;2023-02-12T08:10:12;95761.88;;;0.82;72.81
6136;BME280;24008;42.664;23.372;2023-02-12T08:12:39;95766.06;;;0.82;73.25
6136;BME280;24008;42.664;23.372;2023-02-12T08:15:07;95721.69;;;0.57;73.44
6136;BME280;24008;42.664;23.372;2023-02-12T08:17:35;95760.81;;;0.88;73.07
6136;BME280;24008;42.664;23.372;2023-02-12T08:20:03;95765.00;;;0.87;72.99
6136;BME280;24008;42.664;23.372;2023-02-12T08:22:30;95760.75;;;0.89;73.05
6136;BME280;24008;42.664;23.372;2023-02-12T08:24:57;95770.00;;;0.89;73.18
6136;BME280;24008;42.664;23.372;2023-02-12T08:27:24;95768.31;;;0.89;73.01
6136;BME280;24008;42.664;23.372;2023-02-12T08:29:51;95777.50;;;0.90;73.25
6136;BME280;24008;42.664;23.372;2023-02-12T08:32:18;95725.09;;;0.56;73.79
6136;BME280;24008;42.664;23.372;2023-02-12T08:34:46;95785.09;;;0.89;73.19
6136;BME280;24008;42.664;23.372;2023-02-12T08:37:12;95795.13;;;0.90;73.35
6136;BME280;24008;42.664;23.372;2023-02-12T08:39:39;95796.03;;;0.88;73.04
6136;BME280;24008;42.664;23.372;2023-02-12T08:42:06;95797.69;;;0.89;73.41
6136;BME280;24008;42.664;23.372;2023-02-12T08:44:33;95768.91;;;0.72;73.37
6136;BME280;24008;42.664;23.372;2023-02-12T08:46:59;95637.72;;;-0.07;73.16
6136;BME280;24008;42.664;23.372;2023-02-12T08:49:27;95745.97;;;0.58;73.21
6136;BME280;24008;42.664;23.372;2023-02-12T08:52:14;95749.91;;;0.65;73.11
6136;BME280;24008;42.664;23.372;2023-02-12T08:54:43;95790.53;;;1.00;72.83
6136;BME280;24008;42.664;23.372;2023-02-12T08:57:10;95578.53;;;-0.38;72.57
6136;BME280;24008;42.664;23.372;2023-02-12T08:59:37;95739.94;;;0.62;72.58
6136;BME280;24008;42.664;23.372;2023-02-12T09:02:04;95815.06;;;1.18;72.66
6136;BME280;24008;42.664;23.372;2023-02-12T09:04:34;95806.47;;;1.22;72.32
6136;BME280;24008;42.664;23.372;2023-02-12T09:07:01;95821.78;;;1.18;72.17
6136;BME280;24008;42.664;23.372;2023-02-12T09:09:29;95813.16;;;1.23;72.11
6136;BME280;24008;42.664;23.372;2023-02-12T09:11:56;95654.38;;;0.19;72.46
6136;BME280;24008;42.664;23.372;2023-02-12T09:14:23;95643.22;;;0.26;72.28
6136;BME280;24008;42.664;23.372;2023-02-12T09:16:50;95785.94;;;1.11;72.39
6136;BME280;24008;42.664;23.372;2023-02-12T09:19:18;95823.78;;;1.31;72.79
6136;BME280;24008;42.664;23.372;2023-02-12T09:21:44;95824.53;;;1.33;73.11
6136;BME280;24008;42.664;23.372;2023-02-12T09:24:11;95795.78;;;1.17;73.04
6136;BME280;24008;42.664;23.372;2023-02-12T09:26:39;95831.34;;;1.31;73.25
6136;BME280;24008;42.664;23.372;2023-02-12T09:29:06;95841.41;;;1.31;73.35
6136;BME280;24008;42.664;23.372;2023-02-12T09:31:33;95834.47;;;1.36;73.53
6136;BME280;24008;42.664;23.372;2023-02-12T09:34:02;95825.94;;;1.40;73.29
6136;BME280;24008;42.664;23.372;2023-02-12T09:36:30;95840.81;;;1.47;72.69
6136;BME280;24008;42.664;23.372;2023-02-12T09:38:57;95837.28;;;1.51;73.11
6136;BME280;24008;42.664;23.372;2023-02-12T09:41:48;95805.13;;;1.35;72.41
6136;BME280;24008;42.664;23.372;2023-02-12T09:44:23;95697.38;;;0.80;72.51
6136;BME280;24008;42.664;23.372;2023-02-12T09:46:54;95835.88;;;1.65;71.93
6136;BME280;24008;42.664;23.372;2023-02-12T09:49:39;95762.84;;;1.22;71.40
6136;BME280;24008;42.664;23.372;2023-02-12T09:52:11;95870.25;;;1.68;71.70
6136;BME280;24008;42.664;23.372;2023-02-12T09:54:39;95741.63;;;1.07;71.89
6136;BME280;24008;42.664;23.372;2023-02-12T09:57:18;95739.97;;;1.06;71.78
6136;BME280;24008;42.664;23.372;2023-02-12T09:59:50;95860.50;;;1.80;72.07
6136;BME280;24008;42.664;23.372;2023-02-12T10:02:19;95838.59;;;2.03;71.80
6136;BME280;24008;42.664;23.372;2023-02-12T10:04:48;95805.81;;;2.03;70.85
6136;BME280;24008;42.664;23.372;2023-02-12T10:07:22;95837.06;;;2.39;70.23
6136;BME280;24008;42.664;23.372;2023-02-12T10:10:14;95850.28;;;2.65;69.85
6136;BME280;24008;42.664;23.372;2023-02-12T10:12:49;95854.81;;;2.96;68.56
6136;BME280;24008;42.664;23.372;2023-02-12T10:15:29;95764.81;;;2.76;67.14
6136;BME280;24008;42.664;23.372;2023-02-12T10:18:06;95837.16;;;3.50;65.73
6136;BME280;24008;42.664;23.372;2023-02-12T10:20:53;95758.16;;;3.28;65.23
6136;BME280;24008;42.664;23.372;2023-02-12T10:23:43;95747.59;;;3.56;64.21
6136;BME280;24008;42.664;23.372;2023-02-12T10:26:18;95844.03;;;4.52;62.31
6136;BME280;24008;42.664;23.372;2023-02-12T10:28:48;95833.13;;;4.67;61.02
6136;BME280;24008;42.664;23.372;2023-02-12T10:31:23;95724.00;;;3.90;60.31
6136;BME280;24008;42.664;23.372;2023-02-12T10:33:51;95847.09;;;4.41;60.49
6136;BME280;24008;42.664;23.372;2023-02-12T10:36:34;95840.56;;;4.20;61.66
6136;BME280;24008;42.664;23.372;2023-02-12T10:39:11;95843.16;;;4.01;62.00
6136;BME280;24008;42.664;23.372;2023-02-12T10:41:42;95839.00;;;3.83;62.57
6136;BME280;24008;42.664;23.372;2023-02-12T10:44:12;95845.31;;;3.74;63.09
6136;BME280;24008;42.664;23.372;2023-02-12T10:46:39;95853.25;;;3.67;63.31
6136;BME280;24008;42.664;23.372;2023-02-12T10:49:06;95719.00;;;2.83;62.99
6136;BME280;24008;42.664;23.372;2023-02-12T10:51:44;95718.13;;;2.84;63.55
6136;BME280;24008;42.664;23.372;2023-02-12T10:54:39;95630.81;;;2.26;63.14
6136;BME280;24008;42.664;23.372;2023-02-12T10:57:10;95854.97;;;3.66;63.36
6136;BME280;24008;42.664;23.372;2023-02-12T10:59:41;95819.63;;;3.29;63.75
6136;BME280;24008;42.664;23.372;2023-02-12T11:02:24;95875.00;;;3.52;64.27
6136;BME280;24008;42.664;23.372;2023-02-12T11:04:52;95851.25;;;3.37;64.17
6136;BME280;24008;42.664;23.372;2023-02-12T11:07:20;95830.75;;;3.43;63.77
6136;BME280;24008;42.664;23.372;2023-02-12T11:09:49;95815.16;;;3.52;63.87
6136;BME280;24008;42.664;23.372;2023-02-12T11:12:25;95820.69;;;3.60;64.00
6136;BME280;24008;42.664;23.372;2023-02-12T11:14:57;95844.28;;;3.95;63.19
6136;BME280;24008;42.664;23.372;2023-02-12T11:17:28;95746.31;;;3.47;62.75
6136;BME280;24008;42.664;23.372;2023-02-12T11:20:06;95838.94;;;4.19;62.70
6136;BME280;24008;42.664;23.372;2023-02-12T11:22:34;95779.50;;;3.93;62.57
6136;BME280;24008;42.664;23.372;2023-02-12T11:25:14;95842.19;;;4.38;61.80
6136;BME280;24008;42.664;23.372;2023-02-12T11:27:41;95840.47;;;4.56;61.53
6136;BME280;24008;42.664;23.372;2023-02-12T11:30:16;95835.53;;;4.70;61.45
6136;BME280;24008;42.664;23.372;2023-02-12T11:32:43;95793.72;;;4.46;60.40
6136;BME280;24008;42.664;23.372;2023-02-12T11:35:13;95829.53;;;4.71;60.84
6136;BME280;24008;42.664;23.372;2023-02-12T11:37:44;95761.00;;;4.25;60.70
6136;BME280;24008;42.664;23.372;2023-02-12T11:40:17;95832.31;;;4.66;61.12
6136;BME280;24008;42.664;23.372;2023-02-12T11:42:48;95833.44;;;4.61;61.49
6136;BME280;24008;42.664;23.372;2023-02-12T11:45:19;95835.59;;;4.68;61.01
6136;BME280;24008;42.664;23.372;2023-02-12T11:47:47;95835.34;;;4.73;61.56
6136;BME280;24008;42.664;23.372;2023-02-12T11:50:23;95787.59;;;4.50;60.25
6136;BME280;24008;42.664;23.372;2023-02-12T11:52:53;95842.19;;;4.71;60.44
6136;BME280;24008;42.664;23.372;2023-02-12T11:55:24;95767.00;;;4.07;61.05
6136;BME280;24008;42.664;23.372;2023-02-12T11:57:53;95835.41;;;4.56;60.78
6136;BME280;24008;42.664;23.372;2023-02-12T12:00:32;95682.22;;;3.66;60.68
6136;BME280;24008;42.664;23.372;2023-02-12T12:03:06;95839.91;;;4.66;60.11
6136;BME280;24008;42.664;23.372;2023-02-12T12:05:45;95724.13;;;3.87;59.68
6136;BME280;24008;42.664;23.372;2023-02-12T12:08:17;95715.66;;;3.88;60.05
6136;BME280;24008;42.664;23.372;2023-02-12T12:10:49;95839.50;;;4.74;60.50
6136;BME280;24008;42.664;23.372;2023-02-12T12:13:23;95835.59;;;4.84;59.83
6136;BME280;24008;42.664;23.372;2023-02-12T12:16:03;95843.94;;;4.86;59.92
6136;BME280;24008;42.664;23.372;2023-02-12T12:18:53;95836.16;;;4.74;59.99
6136;BME280;24008;42.664;23.372;2023-02-12T12:21:41;95846.38;;;4.72;60.28
6136;BME280;24008;42.664;23.372;2023-02-12T12:24:14;95788.97;;;4.40;60.47
6136;BME280;24008;42.664;23.372;2023-02-12T12:26:45;95642.47;;;3.52;60.08
6136;BME280;24008;42.664;23.372;2023-02-12T12:29:18;95741.81;;;4.21;59.99
6136;BME280;24008;42.664;23.372;2023-02-12T12:31:52;95746.94;;;4.20;59.80
6136;BME280;24008;42.664;23.372;2023-02-12T12:34:22;95759.28;;;4.26;59.49
6136;BME280;24008;42.664;23.372;2023-02-12T12:39:55;95785.38;;;4.44;59.06
6136;BME280;24008;42.664;23.372;2023-02-12T12:42:52;95718.47;;;3.99;60.06
6136;BME280;24008;42.664;23.372;2023-02-12T12:45:34;95853.34;;;4.84;59.72
6136;BME280;24008;42.664;23.372;2023-02-12T12:48:16;95860.94;;;4.84;59.55
6136;BME280;24008;42.664;23.372;2023-02-12T12:50:59;95702.59;;;3.80;60.16
6136;BME280;24008;42.664;23.372;2023-02-12T12:53:38;95782.19;;;4.23;60.40
6136;BME280;24008;42.664;23.372;2023-02-12T12:56:44;95865.16;;;4.68;59.97
6136;BME280;24008;42.664;23.372;2023-02-12T12:59:44;95831.84;;;4.25;60.08
6136;BME280;24008;42.664;23.372;2023-02-12T13:05:35;95871.59;;;4.41;61.17
6136;BME280;24008;42.664;23.372;2023-02-12T13:08:15;95754.06;;;3.61;61.26
6136;BME280;24008;42.664;23.372;2023-02-12T13:10:49;95873.84;;;4.29;61.70
6136;BME280;24008;42.664;23.372;2023-02-12T13:13:26;95772.47;;;3.63;61.21
6136;BME280;24008;42.664;23.372;2023-02-12T13:16:01;95889.69;;;4.33;61.66
6136;BME280;24008;42.664;23.372;2023-02-12T13:18:44;95874.88;;;4.43;61.62
6136;BME280;24008;42.664;23.372;2023-02-12T13:21:30;95878.16;;;4.45;61.58
6136;BME280;24008;42.664;23.372;2023-02-12T13:24:02;95809.16;;;3.89;61.87
6136;BME280;24008;42.664;23.372;2023-02-12T13:26:41;95878.75;;;4.32;60.99
6136;BME280;24008;42.664;23.372;2023-02-12T13:29:13;95884.84;;;4.28;61.98
6136;BME280;24008;42.664;23.372;2023-02-12T13:31:47;95700.56;;;3.17;61.89
6136;BME280;24008;42.664;23.372;2023-02-12T13:34:16;95875.47;;;4.30;62.56